sensor_id;sensor_type;location;lat;lon;timestamp;pressure;altitude;pressure_sealevel;temperature;humidity
44675;BME280;30388;52.038;-1.478;2023-02-21T00:00:38;65452.89;;;6.86;100.00
44675;BME280;30388;52.038;-1.478;2023-02-21T00:03:06;65536.41;;;8.41;100.00
44675;BME280;30388;52.038;-1.478;2023-02-21T00:05:33;65592.64;;;8.64;100.00
44675;BME280;30388;52.038;-1.478;2023-02-21T00:08:01;65561.59;;;8.72;100.00
44675;BME280;30388;52.038;-1.478;2023-02-21T00:10:28;65566.32;;;8.56;100.00
44675;BME280;30388;52.038;-1.478;2023-02-21T00:12:55;65572.26;;;8.37;100.00
44675;BME280;30388;52.038;-1.478;2023-02-21T00:15:22;65534.65;;;8.16;100.00
44675;BME280;30388;52.038;-1.478;2023-02-21T00:17:49;65521.48;;;8.44;100.00
44675;BME280;30388;52.038;-1.478;2023-02-21T00:20:16;65487.54;;;7.78;100.00
44675;BME280;30388;52.038;-1.478;2023-02-21T00:22:44;65589.39;;;8.59;100.00
44675;BME280;30388;52.038;-1.478;2023-02-21T00:25:11;65673.66;;;9.66;100.00
44675;BME280;30388;52.038;-1.478;2023-02-21T00:27:38;65680.52;;;9.30;100.00
44675;BME280;30388;52.038;-1.478;2023-02-21T00:30:06;65547.99;;;8.06;100.00
44675;BME280;30388;52.038;-1.478;2023-02-21T00:32:34;65659.34;;;9.48;100.00
44675;BME280;30388;52.038;-1.478;2023-02-21T00:35:02;65701.75;;;9.79;100.00
44675;BME280;30388;52.038;-1.478;2023-02-21T00:37:29;65753.91;;;10.22;100.00
44675;BME280;30388;52.038;-1.478;2023-02-21T00:39:56;65739.50;;;10.05;100.00
44675;BME280;30388;52.038;-1.478;2023-02-21T00:42:23;65810.77;;;10.68;100.00
44675;BME280;30388;52.038;-1.478;2023-02-21T00:44:50;65828.56;;;10.91;100.00
44675;BME280;30388;52.038;-1.478;2023-02-21T00:47:17;65818.14;;;11.26;100.00
44675;BME280;30388;52.038;-1.478;2023-02-21T00:49:45;65803.68;;;10.60;100.00
44675;BME280;30388;52.038;-1.478;2023-02-21T00:52:12;65722.27;;;9.82;100.00
44675;BME280;30388;52.038;-1.478;2023-02-21T00:54:39;65771.15;;;10.45;100.00
44675;BME280;30388;52.038;-1.478;2023-02-21T00:57:06;65705.54;;;9.61;100.00
44675;BME280;30388;52.038;-1.478;2023-02-21T00:59:34;65641.86;;;9.25;100.00
44675;BME280;30388;52.038;-1.478;2023-02-21T01:02:01;65645.12;;;9.30;100.00
44675;BME280;30388;52.038;-1.478;2023-02-21T01:04:28;65672.65;;;9.20;100.00
44675;BME280;30388;52.038;-1.478;2023-02-21T01:06:56;65605.37;;;8.78;100.00
44675;BME280;30388;52.038;-1.478;2023-02-21T01:09:23;65591.31;;;8.61;100.00
44675;BME280;30388;52.038;-1.478;2023-02-21T01:11:50;65554.79;;;8.14;100.00
44675;BME280;30388;52.038;-1.478;2023-02-21T01:14:18;65600.87;;;8.73;100.00
44675;BME280;30388;52.038;-1.478;2023-02-21T01:16:45;65653.66;;;9.40;100.00
44675;BME280;30388;52.038;-1.478;2023-02-21T01:19:12;65566.53;;;8.79;100.00
44675;BME280;30388;52.038;-1.478;2023-02-21T01:21:39;65638.70;;;9.21;100.00
44675;BME280;30388;52.038;-1.478;2023-02-21T01:24:10;65649.79;;;9.13;100.00
44675;BME280;30388;52.038;-1.478;2023-02-21T01:26:38;65662.46;;;9.52;100.00
44675;BME280;30388;52.038;-1.478;2023-02-21T01:29:05;65527.94;;;8.07;100.00
44675;BME280;30388;52.038;-1.478;2023-02-21T01:31:32;65434.88;;;7.34;100.00
44675;BME280;30388;52.038;-1.478;2023-02-21T01:34:00;65512.26;;;8.10;100.00
44675;BME280;30388;52.038;-1.478;2023-02-21T01:36:28;65610.44;;;8.86;100.00
44675;BME280;30388;52.038;-1.478;2023-02-21T01:38:54;65508.50;;;8.05;100.00
44675;BME280;30388;52.038;-1.478;2023-02-21T01:41:22;65438.19;;;7.38;100.00
44675;BME280;30388;52.038;-1.478;2023-02-21T01:44:02;65477.63;;;7.66;100.00
44675;BME280;30388;52.038;-1.478;2023-02-21T01:46:29;65431.45;;;7.08;100.00
44675;BME280;30388;52.038;-1.478;2023-02-21T01:48:58;65451.16;;;7.33;100.00
44675;BME280;30388;52.038;-1.478;2023-02-21T01:51:30;65395.38;;;6.84;100.00
44675;BME280;30388;52.038;-1.478;2023-02-21T01:53:58;65338.53;;;6.39;100.00
44675;BME280;30388;52.038;-1.478;2023-02-21T01:56:26;65482.90;;;7.95;100.00
44675;BME280;30388;52.038;-1.478;2023-02-21T01:58:57;65524.43;;;8.26;100.00
44675;BME280;30388;52.038;-1.478;2023-02-21T02:01:33;65409.21;;;7.01;100.00
44675;BME280;30388;52.038;-1.478;2023-02-21T02:04:02;65484.09;;;7.96;100.00
44675;BME280;30388;52.038;-1.478;2023-02-21T02:06:29;65494.24;;;7.87;100.00
44675;BME280;30388;52.038;-1.478;2023-02-21T02:08:56;65507.17;;;8.04;100.00
44675;BME280;30388;52.038;-1.478;2023-02-21T02:11:38;65566.79;;;8.79;100.00
44675;BME280;30388;52.038;-1.478;2023-02-21T02:14:23;65545.44;;;8.52;100.00
44675;BME280;30388;52.038;-1.478;2023-02-21T02:16:58;65469.58;;;7.78;100.00
44675;BME280;30388;52.038;-1.478;2023-02-21T02:21:24;65430.07;;;7.28;100.00
44675;BME280;30388;52.038;-1.478;2023-02-21T02:24:15;65438.29;;;7.38;100.00
44675;BME280;30388;52.038;-1.478;2023-02-21T02:29:22;65465.74;;;7.99;100.00
44675;BME280;30388;52.038;-1.478;2023-02-21T02:32:09;65487.34;;;8.01;100.00
44675;BME280;30388;52.038;-1.478;2023-02-21T02:34:53;65452.69;;;7.83;100.00
44675;BME280;30388;52.038;-1.478;2023-02-21T02:37:24;65549.05;;;8.57;100.00
44675;BME280;30388;52.038;-1.478;2023-02-21T02:39:59;65587.51;;;8.57;100.00
44675;BME280;30388;52.038;-1.478;2023-02-21T02:42:39;65542.13;;;7.99;100.00
44675;BME280;30388;52.038;-1.478;2023-02-21T02:45:13;65525.29;;;8.04;100.00
44675;BME280;30388;52.038;-1.478;2023-02-21T02:47:43;65495.15;;;8.10;100.00
44675;BME280;30388;52.038;-1.478;2023-02-21T02:50:12;65392.20;;;7.06;100.00
44675;BME280;30388;52.038;-1.478;2023-02-21T02:52:49;65478.78;;;7.68;100.00
44675;BME280;30388;52.038;-1.478;2023-02-21T02:55:25;65450.26;;;7.54;100.00
44675;BME280;30388;52.038;-1.478;2023-02-21T02:57:56;65463.17;;;7.70;100.00
44675;BME280;30388;52.038;-1.478;2023-02-21T03:00:24;65440.56;;;7.41;100.00
44675;BME280;30388;52.038;-1.478;2023-02-21T03:03:04;65430.85;;;7.07;100.00
44675;BME280;30388;52.038;-1.478;2023-02-21T03:05:45;65393.99;;;6.83;100.00
44675;BME280;30388;52.038;-1.478;2023-02-21T03:08:18;65524.86;;;8.26;100.00
44675;BME280;30388;52.038;-1.478;2023-02-21T03:10:54;65520.67;;;8.21;100.00
44675;BME280;30388;52.038;-1.478;2023-02-21T03:13:40;65452.92;;;7.36;100.00
44675;BME280;30388;52.038;-1.478;2023-02-21T03:16:23;65536.55;;;8.41;100.00
44675;BME280;30388;52.038;-1.478;2023-02-21T03:18:54;65482.50;;;7.73;100.00
44675;BME280;30388;52.038;-1.478;2023-02-21T03:21:26;65459.89;;;7.44;100.00
44675;BME280;30388;52.038;-1.478;2023-02-21T03:23:57;65421.87;;;7.18;100.00
44675;BME280;30388;52.038;-1.478;2023-02-21T03:26:27;65426.06;;;7.23;100.00
44675;BME280;30388;52.038;-1.478;2023-02-21T03:28:57;65387.88;;;6.53;100.00
44675;BME280;30388;52.038;-1.478;2023-02-21T03:31:28;65455.74;;;7.61;100.00
44675;BME280;30388;52.038;-1.478;2023-02-21T03:33:56;65447.01;;;7.50;100.00
44675;BME280;30388;52.038;-1.478;2023-02-21T03:36:24;65362.72;;;6.70;100.00
44675;BME280;30388;52.038;-1.478;2023-02-21T03:38:51;65415.22;;;7.10;100.00
44675;BME280;30388;52.038;-1.478;2023-02-21T03:41:18;65479.11;;;7.68;100.00
44675;BME280;30388;52.038;-1.478;2023-02-21T03:43:45;65452.38;;;7.35;100.00
44675;BME280;30388;52.038;-1.478;2023-02-21T03:46:12;65381.94;;;6.95;100.00
44675;BME280;30388;52.038;-1.478;2023-02-21T03:48:40;65466.92;;;7.54;100.00
44675;BME280;30388;52.038;-1.478;2023-02-21T03:51:07;65548.85;;;8.35;100.00
44675;BME280;30388;52.038;-1.478;2023-02-21T03:53:34;65527.05;;;8.30;100.00
44675;BME280;30388;52.038;-1.478;2023-02-21T03:56:01;65527.97;;;8.31;100.00
44675;BME280;30388;52.038;-1.478;2023-02-21T03:58:28;65535.65;;;8.40;100.00
44675;BME280;30388;52.038;-1.478;2023-02-21T04:00:56;65632.45;;;9.14;100.00
44675;BME280;30388;52.038;-1.478;2023-02-21T04:03:23;65560.22;;;8.22;100.00
44675;BME280;30388;52.038;-1.478;2023-02-21T04:05:50;65494.98;;;7.67;100.00
44675;BME280;30388;52.038;-1.478;2023-02-21T04:08:17;65478.55;;;7.46;100.00
44675;BME280;30388;52.038;-1.478;2023-02-21T04:10:44;65611.64;;;9.14;100.00
44675;BME280;30388;52.038;-1.478;2023-02-21T04:13:11;65483.62;;;7.73;100.00
44675;BME280;30388;52.038;-1.478;2023-02-21T04:15:39;65398.70;;;7.15;100.00
44675;BME280;30388;52.038;-1.478;2023-02-21T04:18:06;65504.29;;;8.02;100.00
44675;BME280;30388;52.038;-1.478;2023-02-21T04:20:33;65461.90;;;7.47;100.00
44675;BME280;30388;52.038;-1.478;2023-02-21T04:23:00;65443.84;;;7.24;100.00
44675;BME280;30388;52.038;-1.478;2023-02-21T04:25:29;65566.97;;;8.57;100.00
44675;BME280;30388;52.038;-1.478;2023-02-21T04:27:56;65566.75;;;8.57;100.00
44675;BME280;30388;52.038;-1.478;2023-02-21T04:30:23;65472.69;;;7.83;100.00
44675;BME280;30388;52.038;-1.478;2023-02-21T04:32:50;65536.93;;;8.42;100.00
44675;BME280;30388;52.038;-1.478;2023-02-21T04:35:17;65601.06;;;8.74;100.00
44675;BME280;30388;52.038;-1.478;2023-02-21T04:37:44;65502.37;;;7.98;100.00
44675;BME280;30388;52.038;-1.478;2023-02-21T04:40:12;65521.63;;;8.23;100.00
44675;BME280;30388;52.038;-1.478;2023-02-21T04:42:39;65556.32;;;8.44;100.00
44675;BME280;30388;52.038;-1.478;2023-02-21T04:45:06;65599.58;;;8.73;100.00
44675;BME280;30388;52.038;-1.478;2023-02-21T04:47:34;65584.15;;;8.79;100.00
44675;BME280;30388;52.038;-1.478;2023-02-21T04:50:01;65555.16;;;8.43;100.00
44675;BME280;30388;52.038;-1.478;2023-02-21T04:52:28;65629.80;;;9.11;100.00
44675;BME280;30388;52.038;-1.478;2023-02-21T04:54:56;65677.47;;;9.71;100.00
44675;BME280;30388;52.038;-1.478;2023-02-21T04:57:23;65526.36;;;7.79;100.00
44675;BME280;30388;52.038;-1.478;2023-02-21T04:59:56;65558.60;;;8.20;100.00
44675;BME280;30388;52.038;-1.478;2023-02-21T05:02:23;65501.78;;;7.75;100.00
44675;BME280;30388;52.038;-1.478;2023-02-21T05:04:50;65571.79;;;8.37;100.00
44675;BME280;30388;52.038;-1.478;2023-02-21T05:07:17;65707.14;;;10.08;100.00
44675;BME280;30388;52.038;-1.478;2023-02-21T05:09:45;65642.71;;;9.04;100.00
44675;BME280;30388;52.038;-1.478;2023-02-21T05:12:12;65687.52;;;9.62;100.00
44675;BME280;30388;52.038;-1.478;2023-02-21T05:14:40;65508.75;;;7.57;100.00
44675;BME280;30388;52.038;-1.478;2023-02-21T05:17:07;65627.84;;;9.09;100.00
44675;BME280;30388;52.038;-1.478;2023-02-21T05:19:35;65666.90;;;9.58;100.00
44675;BME280;30388;52.038;-1.478;2023-02-21T05:22:02;65657.72;;;9.46;100.00
44675;BME280;30388;52.038;-1.478;2023-02-21T05:24:30;65561.55;;;8.24;100.00
44675;BME280;30388;52.038;-1.478;2023-02-21T05:26:58;65650.68;;;9.37;100.00
44675;BME280;30388;52.038;-1.478;2023-02-21T05:29:25;65632.97;;;9.15;100.00
44675;BME280;30388;52.038;-1.478;2023-02-21T05:31:52;65688.76;;;9.85;100.00
44675;BME280;30388;52.038;-1.478;2023-02-21T05:34:19;65676.99;;;9.48;100.00
44675;BME280;30388;52.038;-1.478;2023-02-21T05:36:46;65642.11;;;9.26;100.00
44675;BME280;30388;52.038;-1.478;2023-02-21T05:39:14;65588.92;;;8.58;100.00
44675;BME280;30388;52.038;-1.478;2023-02-21T05:41:46;65608.66;;;8.83;100.00
44675;BME280;30388;52.038;-1.478;2023-02-21T05:44:14;65570.51;;;8.36;100.00
44675;BME280;30388;52.038;-1.478;2023-02-21T05:46:41;65487.88;;;7.79;100.00
44675;BME280;30388;52.038;-1.478;2023-02-21T05:49:09;65501.13;;;7.96;100.00
44675;BME280;30388;52.038;-1.478;2023-02-21T05:51:37;65576.66;;;8.44;100.00
44675;BME280;30388;52.038;-1.478;2023-02-21T05:54:07;65524.40;;;7.77;100.00
44675;BME280;30388;52.038;-1.478;2023-02-21T05:56:37;65542.00;;;8.49;100.00
44675;BME280;30388;52.038;-1.478;2023-02-21T05:59:04;65609.50;;;8.85;100.00
44675;BME280;30388;52.038;-1.478;2023-02-21T06:01:31;65577.69;;;8.71;100.00
44675;BME280;30388;52.038;-1.478;2023-02-21T06:03:58;65546.48;;;8.31;100.00
44675;BME280;30388;52.038;-1.478;2023-02-21T06:06:26;65493.56;;;7.64;100.00
44675;BME280;30388;52.038;-1.478;2023-02-21T06:08:53;65572.62;;;8.65;100.00
44675;BME280;30388;52.038;-1.478;2023-02-21T06:11:23;65695.74;;;9.71;100.00
44675;BME280;30388;52.038;-1.478;2023-02-21T06:13:51;65647.98;;;9.34;100.00
44675;BME280;30388;52.038;-1.478;2023-02-21T06:16:18;65653.96;;;9.41;100.00
44675;BME280;30388;52.038;-1.478;2023-02-21T06:18:49;65588.63;;;8.59;100.00
44675;BME280;30388;52.038;-1.478;2023-02-21T06:21:16;65590.82;;;8.38;100.00
44675;BME280;30388;52.038;-1.478;2023-02-21T06:23:45;65656.34;;;9.44;100.00
44675;BME280;30388;52.038;-1.478;2023-02-21T06:26:13;65722.57;;;10.05;100.00
44675;BME280;30388;52.038;-1.478;2023-02-21T06:28:41;65699.08;;;9.76;100.00
44675;BME280;30388;52.038;-1.478;2023-02-21T06:31:08;65654.37;;;8.97;100.00
44675;BME280;30388;52.038;-1.478;2023-02-21T06:33:35;65572.85;;;8.39;100.00
44675;BME280;30388;52.038;-1.478;2023-02-21T06:36:04;65598.34;;;8.71;100.00
44675;BME280;30388;52.038;-1.478;2023-02-21T06:38:31;65653.22;;;9.18;100.00
44675;BME280;30388;52.038;-1.478;2023-02-21T06:40:58;65668.27;;;9.38;100.00
44675;BME280;30388;52.038;-1.478;2023-02-21T06:43:25;65622.96;;;9.02;100.00
44675;BME280;30388;52.038;-1.478;2023-02-21T06:45:53;65683.79;;;9.79;100.00
44675;BME280;30388;52.038;-1.478;2023-02-21T06:48:20;65658.03;;;9.47;100.00
44675;BME280;30388;52.038;-1.478;2023-02-21T06:50:46;65667.28;;;9.36;100.00
44675;BME280;30388;52.038;-1.478;2023-02-21T06:53:13;65581.84;;;8.50;100.00
44675;BME280;30388;52.038;-1.478;2023-02-21T06:55:40;65570.33;;;8.35;100.00
44675;BME280;30388;52.038;-1.478;2023-02-21T06:58:08;65431.47;;;7.30;100.00
44675;BME280;30388;52.038;-1.478;2023-02-21T07:00:36;65550.47;;;8.37;100.00
44675;BME280;30388;52.038;-1.478;2023-02-21T07:03:03;65519.50;;;7.70;100.00
44675;BME280;30388;52.038;-1.478;2023-02-21T07:05:31;65629.23;;;9.09;100.00
44675;BME280;30388;52.038;-1.478;2023-02-21T07:07:58;65720.79;;;10.03;100.00
44675;BME280;30388;52.038;-1.478;2023-02-21T07:10:26;65706.20;;;9.62;100.00
44675;BME280;30388;52.038;-1.478;2023-02-21T07:12:54;65704.67;;;9.61;100.00
44675;BME280;30388;52.038;-1.478;2023-02-21T07:15:22;65737.96;;;10.03;100.00
44675;BME280;30388;52.038;-1.478;2023-02-21T07:17:49;65741.41;;;10.07;100.00
44675;BME280;30388;52.038;-1.478;2023-02-21T07:20:16;65828.60;;;10.90;100.00
44675;BME280;30388;52.038;-1.478;2023-02-21T07:22:43;65736.98;;;10.02;100.00
44675;BME280;30388;52.038;-1.478;2023-02-21T07:25:14;65825.35;;;11.14;100.00
44675;BME280;30388;52.038;-1.478;2023-02-21T07:27:41;65808.76;;;10.92;100.00
44675;BME280;30388;52.038;-1.478;2023-02-21T07:30:09;65779.27;;;10.55;100.00
44675;BME280;30388;52.038;-1.478;2023-02-21T07:32:36;65753.72;;;10.23;100.00
44675;BME280;30388;52.038;-1.478;2023-02-21T07:35:04;65820.81;;;10.81;100.00
44675;BME280;30388;52.038;-1.478;2023-02-21T07:37:31;65806.17;;;10.89;100.00
44675;BME280;30388;52.038;-1.478;2023-02-21T07:39:58;65779.96;;;10.56;100.00
44675;BME280;30388;52.038;-1.478;2023-02-21T07:42:25;65787.44;;;10.66;100.00
44675;BME280;30388;52.038;-1.478;2023-02-21T07:44:54;65708.54;;;9.88;100.00
44675;BME280;30388;52.038;-1.478;2023-02-21T07:47:22;65637.94;;;8.99;100.00
44675;BME280;30388;52.038;-1.478;2023-02-21T07:49:49;65639.82;;;9.24;100.00
44675;BME280;30388;52.038;-1.478;2023-02-21T07:52:17;65699.37;;;9.77;100.00
44675;BME280;30388;52.038;-1.478;2023-02-21T07:54:44;65488.78;;;7.32;100.00
44675;BME280;30388;52.038;-1.478;2023-02-21T07:57:12;65530.65;;;7.85;100.00
44675;BME280;30388;52.038;-1.478;2023-02-21T07:59:41;65579.22;;;8.46;100.00
44675;BME280;30388;52.038;-1.478;2023-02-21T08:02:09;65658.10;;;9.46;100.00
44675;BME280;30388;52.038;-1.478;2023-02-21T08:04:37;65697.23;;;9.95;100.00
44675;BME280;30388;52.038;-1.478;2023-02-21T08:07:05;65710.60;;;9.90;100.00
44675;BME280;30388;52.038;-1.478;2023-02-21T08:09:34;65720.12;;;9.80;100.00
44675;BME280;30388;52.038;-1.478;2023-02-21T08:12:02;65688.04;;;9.40;100.00
44675;BME280;30388;52.038;-1.478;2023-02-21T08:14:30;65671.98;;;9.64;100.00
44675;BME280;30388;52.038;-1.478;2023-02-21T08:16:57;65720.12;;;9.80;100.00
44675;BME280;30388;52.038;-1.478;2023-02-21T08:19:24;65708.50;;;9.66;100.00
44675;BME280;30388;52.038;-1.478;2023-02-21T08:21:51;65784.01;;;10.62;100.00
44675;BME280;30388;52.038;-1.478;2023-02-21T08:24:19;65815.15;;;11.01;100.00
44675;BME280;30388;52.038;-1.478;2023-02-21T08:26:46;65774.28;;;10.49;100.00
44675;BME280;30388;52.038;-1.478;2023-02-21T08:29:14;65774.75;;;10.50;100.00
44675;BME280;30388;52.038;-1.478;2023-02-21T08:31:41;65526.48;;;7.80;100.00
44675;BME280;30388;52.038;-1.478;2023-02-21T08:34:09;65635.65;;;9.18;100.00
44675;BME280;30388;52.038;-1.478;2023-02-21T08:36:38;65712.14;;;10.15;100.00
44675;BME280;30388;52.038;-1.478;2023-02-21T08:39:06;65719.90;;;10.03;100.00
44675;BME280;30388;52.038;-1.478;2023-02-21T08:41:35;65718.53;;;9.79;100.00
44675;BME280;30388;52.038;-1.478;2023-02-21T08:44:03;65726.24;;;10.11;100.00
44675;BME280;30388;52.038;-1.478;2023-02-21T08:46:31;65674.46;;;9.45;100.00
44675;BME280;30388;52.038;-1.478;2023-02-21T08:48:58;65593.53;;;8.66;100.00
44675;BME280;30388;52.038;-1.478;2023-02-21T08:51:26;65522.49;;;7.75;100.00
44675;BME280;30388;52.038;-1.478;2023-02-21T08:53:54;65581.30;;;8.49;100.00
44675;BME280;30388;52.038;-1.478;2023-02-21T08:56:22;65522.88;;;8.24;100.00
44675;BME280;30388;52.038;-1.478;2023-02-21T08:58:50;65600.09;;;8.73;100.00
44675;BME280;30388;52.038;-1.478;2023-02-21T09:01:18;65714.97;;;9.97;100.00
44675;BME280;30388;52.038;-1.478;2023-02-21T09:03:45;65704.23;;;10.06;100.00
44675;BME280;30388;52.038;-1.478;2023-02-21T09:06:12;65731.34;;;10.17;100.00
44675;BME280;30388;52.038;-1.478;2023-02-21T09:08:39;65799.03;;;10.31;100.00
44675;BME280;30388;52.038;-1.478;2023-02-21T09:11:07;65749.85;;;10.18;100.00
44675;BME280;30388;52.038;-1.478;2023-02-21T09:13:35;65802.60;;;10.58;100.00
44675;BME280;30388;52.038;-1.478;2023-02-21T09:16:03;65741.34;;;10.08;100.00
44675;BME280;30388;52.038;-1.478;2023-02-21T09:18:31;65719.11;;;10.24;100.00
44675;BME280;30388;52.038;-1.478;2023-02-21T09:20:58;65672.39;;;9.65;100.00
44675;BME280;30388;52.038;-1.478;2023-02-21T09:23:26;65700.58;;;10.00;100.00
44675;BME280;30388;52.038;-1.478;2023-02-21T09:25:54;65705.31;;;9.84;100.00
44675;BME280;30388;52.038;-1.478;2023-02-21T09:28:22;65675.31;;;9.69;100.00
44675;BME280;30388;52.038;-1.478;2023-02-21T09:30:49;65627.32;;;9.08;100.00
44675;BME280;30388;52.038;-1.478;2023-02-21T09:33:17;65753.67;;;10.22;100.00
44675;BME280;30388;52.038;-1.478;2023-02-21T09:35:45;65686.85;;;9.83;100.00
44675;BME280;30388;52.038;-1.478;2023-02-21T09:38:12;65751.99;;;10.22;100.00
44675;BME280;30388;52.038;-1.478;2023-02-21T09:40:42;65798.67;;;10.80;100.00
44675;BME280;30388;52.038;-1.478;2023-02-21T09:43:13;65740.33;;;10.06;100.00
44675;BME280;30388;52.038;-1.478;2023-02-21T09:45:41;65742.33;;;9.83;100.00
44675;BME280;30388;52.038;-1.478;2023-02-21T09:48:13;65714.86;;;9.73;100.00
44675;BME280;30388;52.038;-1.478;2023-02-21T09:50:44;65703.57;;;9.59;100.00
44675;BME280;30388;52.038;-1.478;2023-02-21T09:53:17;65686.82;;;9.61;100.00
44675;BME280;30388;52.038;-1.478;2023-02-21T09:55:45;65755.02;;;10.24;100.00
44675;BME280;30388;52.038;-1.478;2023-02-21T09:58:17;65684.82;;;9.36;100.00
44675;BME280;30388;52.038;-1.478;2023-02-21T10:00:44;65691.84;;;9.45;100.00
44675;BME280;30388;52.038;-1.478;2023-02-21T10:03:26;65676.19;;;9.69;100.00
44675;BME280;30388;52.038;-1.478;2023-02-21T10:06:05;65696.00;;;9.50;100.00
44675;BME280;30388;52.038;-1.478;2023-02-21T10:08:39;65579.38;;;8.47;100.00
44675;BME280;30388;52.038;-1.478;2023-02-21T10:11:26;65608.83;;;8.85;100.00
44675;BME280;30388;52.038;-1.478;2023-02-21T10:14:05;65606.40;;;8.81;100.00
44675;BME280;30388;52.038;-1.478;2023-02-21T10:16:43;65539.75;;;8.23;100.00
44675;BME280;30388;52.038;-1.478;2023-02-21T10:19:17;65554.66;;;8.42;100.00
44675;BME280;30388;52.038;-1.478;2023-02-21T10:21:47;65664.51;;;9.54;100.00
44675;BME280;30388;52.038;-1.478;2023-02-21T10:24:15;65634.95;;;9.44;100.00
44675;BME280;30388;52.038;-1.478;2023-02-21T10:26:49;65682.28;;;9.77;100.00
44675;BME280;30388;52.038;-1.478;2023-02-21T10:29:22;65708.27;;;10.09;100.00
44675;BME280;30388;52.038;-1.478;2023-02-21T10:31:55;65594.52;;;8.67;100.00
44675;BME280;30388;52.038;-1.478;2023-02-21T10:34:26;65640.78;;;9.24;100.00
44675;BME280;30388;52.038;-1.478;2023-02-21T10:36:55;65667.44;;;9.58;100.00
44675;BME280;30388;52.038;-1.478;2023-02-21T10:39:29;65645.03;;;9.29;100.00
44675;BME280;30388;52.038;-1.478;2023-02-21T10:41:59;65544.68;;;8.29;100.00
44675;BME280;30388;52.038;-1.478;2023-02-21T10:44:30;65611.50;;;8.87;100.00
44675;BME280;30388;52.038;-1.478;2023-02-21T10:47:10;65522.60;;;8.01;100.00
44675;BME280;30388;52.038;-1.478;2023-02-21T10:49:46;65514.35;;;8.13;100.00
44675;BME280;30388;52.038;-1.478;2023-02-21T10:52:17;65579.97;;;8.74;100.00
44675;BME280;30388;52.038;-1.478;2023-02-21T10:54:59;65505.39;;;8.02;100.00
44675;BME280;30388;52.038;-1.478;2023-02-21T10:57:29;65509.40;;;8.07;100.00
44675;BME280;30388;52.038;-1.478;2023-02-21T10:59:57;65611.39;;;9.14;100.00
44675;BME280;30388;52.038;-1.478;2023-02-21T11:02:30;65565.69;;;8.29;100.00
44675;BME280;30388;52.038;-1.478;2023-02-21T11:05:09;65558.13;;;8.46;100.00
44675;BME280;30388;52.038;-1.478;2023-02-21T11:07:37;65573.77;;;8.66;100.00
44675;BME280;30388;52.038;-1.478;2023-02-21T11:10:26;65611.52;;;8.87;100.00
44675;BME280;30388;52.038;-1.478;2023-02-21T11:13:04;65664.55;;;9.54;100.00
44675;BME280;30388;52.038;-1.478;2023-02-21T11:15:32;65526.84;;;7.80;100.00
44675;BME280;30388;52.038;-1.478;2023-02-21T11:18:18;65642.66;;;9.26;100.00
44675;BME280;30388;52.038;-1.478;2023-02-21T11:20:48;65670.63;;;9.39;100.00
44675;BME280;30388;52.038;-1.478;2023-02-21T11:23:19;65632.23;;;9.13;100.00
44675;BME280;30388;52.038;-1.478;2023-02-21T11:25:47;65576.72;;;8.69;100.00
44675;BME280;30388;52.038;-1.478;2023-02-21T11:28:19;65636.35;;;9.19;100.00
44675;BME280;30388;52.038;-1.478;2023-02-21T11:30:50;65616.02;;;8.93;100.00
44675;BME280;30388;52.038;-1.478;2023-02-21T11:33:29;65563.35;;;8.53;100.00
44675;BME280;30388;52.038;-1.478;2023-02-21T11:36:09;65646.22;;;9.31;100.00
44675;BME280;30388;52.038;-1.478;2023-02-21T11:38:39;65691.34;;;9.88;100.00
44675;BME280;30388;52.038;-1.478;2023-02-21T11:41:17;65697.33;;;9.97;100.00
44675;BME280;30388;52.038;-1.478;2023-02-21T11:43:47;65601.65;;;8.75;100.00
44675;BME280;30388;52.038;-1.478;2023-02-21T11:46:31;65551.39;;;8.60;100.00
44675;BME280;30388;52.038;-1.478;2023-02-21T11:49:07;65655.06;;;9.43;100.00
44675;BME280;30388;52.038;-1.478;2023-02-21T11:51:43;65712.01;;;9.93;100.00
44675;BME280;30388;52.038;-1.478;2023-02-21T11:54:12;65686.84;;;9.60;100.00
44675;BME280;30388;52.038;-1.478;2023-02-21T11:56:50;65640.62;;;9.24;100.00
44675;BME280;30388;52.038;-1.478;2023-02-21T11:59:25;65711.48;;;10.14;100.00
44675;BME280;30388;52.038;-1.478;2023-02-21T12:02:11;65759.54;;;10.31;100.00
44675;BME280;30388;52.038;-1.478;2023-02-21T12:04:50;65702.11;;;9.80;100.00
44675;BME280;30388;52.038;-1.478;2023-02-21T12:07:29;65718.71;;;10.24;100.00
44675;BME280;30388;52.038;-1.478;2023-02-21T12:10:02;65650.32;;;9.37;100.00
44675;BME280;30388;52.038;-1.478;2023-02-21T12:12:39;65692.42;;;9.89;100.00
44675;BME280;30388;52.038;-1.478;2023-02-21T12:15:18;65698.48;;;9.99;100.00
44675;BME280;30388;52.038;-1.478;2023-02-21T12:17:58;65635.06;;;9.18;100.00
44675;BME280;30388;52.038;-1.478;2023-02-21T12:20:42;65636.77;;;9.19;100.00
44675;BME280;30388;52.038;-1.478;2023-02-21T12:23:21;65676.29;;;9.69;100.00
44675;BME280;30388;52.038;-1.478;2023-02-21T12:25:59;65719.40;;;10.24;100.00
44675;BME280;30388;52.038;-1.478;2023-02-21T12:28:43;65677.07;;;9.71;100.00
44675;BME280;30388;52.038;-1.478;2023-02-21T12:31:24;65642.06;;;9.75;100.00
44675;BME280;30388;52.038;-1.478;2023-02-21T12:34:06;65723.29;;;10.28;100.00
44675;BME280;30388;52.038;-1.478;2023-02-21T12:36:47;65755.94;;;10.70;100.00
44675;BME280;30388;52.038;-1.478;2023-02-21T12:39:29;65599.28;;;8.72;100.00
44675;BME280;30388;52.038;-1.478;2023-02-21T12:42:10;65668.18;;;9.59;100.00
44675;BME280;30388;52.038;-1.478;2023-02-21T12:44:52;65692.33;;;9.89;100.00
44675;BME280;30388;52.038;-1.478;2023-02-21T12:47:26;65671.35;;;9.63;100.00
44675;BME280;30388;52.038;-1.478;2023-02-21T12:50:00;65723.83;;;10.30;100.00
44675;BME280;30388;52.038;-1.478;2023-02-21T12:52:35;65760.06;;;10.53;100.00
44675;BME280;30388;52.038;-1.478;2023-02-21T12:55:15;65759.38;;;10.53;100.00
44675;BME280;30388;52.038;-1.478;2023-02-21T12:57:49;65744.31;;;10.11;100.00
44675;BME280;30388;52.038;-1.478;2023-02-21T13:00:20;65729.43;;;10.37;100.00
44675;BME280;30388;52.038;-1.478;2023-02-21T13:02:58;65726.65;;;10.34;100.00
44675;BME280;30388;52.038;-1.478;2023-02-21T13:05:35;65616.10;;;8.72;100.00
44675;BME280;30388;52.038;-1.478;2023-02-21T13:08:10;65722.43;;;10.27;100.00